• Join FlightAware (Why Join?)
  • Login
  • US Flag 
04:11AM EDT


 

Airport Tracker/Info


-or-


 

Live Flight TrackerFlight Track Log ✈ CHQ6100 ✈ 13-Aug-2014 ✈ KCLE - KJFK

Flight Track Log - Related Links

Times and Time Zones

All times are in EDT time to prevent confusion due to time zone crossing. See the CHQ6100 flight status page for this flight to view local times or setup timezone preferences in your user account.

Time Position Orientation Groundspeed Altitude Reporting Facility
EDT Latitude Longitude Course Direction KTS MPH feet Rate Location/Type
04:38PM 41.3939 -81.8897 73° East 176 203 1,700  Level Cleveland Center
04:39PM 41.3953 -81.9461 272° West 184 212 3,400 2,160 Climbing Cleveland Center
04:40PM 41.3936 -81.9817 266° West 194 223 4,600 1,860 Climbing Cleveland Center
04:40PM 41.4158 -82.0047 322° Northwest 202 232 5,400 1,620 Climbing Cleveland Center
04:41PM 41.4375 -81.9861 33° Northeast 249 287 6,100 1,920 Climbing Cleveland Center
04:41PM 41.4689 -81.9425 46° Northeast 255 293 7,400 1,980 Climbing Cleveland Center
04:42PM 41.7742 -81.4758 37° Northeast  Level FlightAware Approximate
04:42PM 41.5222 -81.8678 46° Northeast 269 310 9,500  Level Cleveland Center
04:43PM 41.8382 -81.3589 75° East  Level FlightAware Approximate
04:43PM 41.5806 -81.7858 46° Northeast 294 338 11,000  Level Cleveland Center
04:44PM 41.8603 -81.2054 73° East  Level FlightAware Approximate
04:44PM 41.6453 -81.6928 47° Northeast 333 383 12,000  Level Cleveland Center
04:45PM 41.7150 -81.5942 47° Northeast 357 411 13,100 1,200 Climbing Cleveland Center
04:46PM 41.7875 -81.4931 46° Northeast 367 422 14,600 1,440 Climbing Cleveland Center
04:48PM 41.8494 -81.3506 60° Northeast 386 444 16,100 1,200 Climbing Cleveland Center
04:49PM 41.8736 -81.2017 78° East 403 464 17,100 960 Climbing Cleveland Center
04:50PM 41.8981 -81.0472 78° East 413 475 18,200 960 Climbing Cleveland Center
04:51PM 41.9233 -80.8925 78° East 420 483 19,200 960 Climbing Cleveland Center
04:52PM 41.9475 -80.7344 78° East 424 488 20,300 960 Climbing Cleveland Center
04:53PM 41.9731 -80.5747 78° East 431 496 21,300 960 Climbing Cleveland Center
04:54PM 41.9983 -80.4119 78° East 437 503 22,300 1,080 Climbing Cleveland Center
04:55PM 42.0292 -80.2194 78° East 444 511 23,600 1,080 Climbing Cleveland Center
04:56PM 42.0536 -80.0508 79° East 451 519 24,600 960 Climbing Cleveland Center
04:57PM 42.0767 -79.8758 80° East 453 521 25,600 780 Climbing Cleveland Center
04:58PM 42.0619 -79.7006 96° East 476 548 26,300 660 Climbing Cleveland Center
04:59PM 42.0444 -79.5225 97° East 479 551 27,000 300 Climbing Cleveland Center
05:00PM 42.0264 -79.3386 97° East 500 575 27,000  Level Cleveland Center
05:01PM 42.0064 -79.1500 98° East 509 586 27,000  Level Cleveland Center
05:02PM 41.9825 -78.9181 98° East 521 600 27,000  Level Cleveland Center
05:03PM 41.9625 -78.7242 98° East 522 601 27,000  Level Cleveland Center
05:04PM 41.9403 -78.5292 99° East 528 608 27,000  Level Cleveland Center
05:05PM 41.9192 -78.3331 98° East 529 609 27,000  Level Cleveland Center
05:07PM 41.8778 -77.9775 99° East 545 627 27,000  Level New York Center
05:08PM 41.8475 -77.7850 102° East 545 627 27,000  Level New York Center
05:09PM 41.8000 -77.5989 109° East 538 619 27,000  Level New York Center
05:10PM 41.7481 -77.4131 110° East 532 612 27,000  Level New York Center
05:11PM 41.6978 -77.2272 110° East 532 612 27,000  Level New York Center
05:12PM 41.6494 -77.0450 109° East 525 604 27,000  Level New York Center
05:13PM 41.5986 -76.8597 110° East 525 604 27,000  Level New York Center
05:14PM 41.5472 -76.6778 111° Southeast 520 598 27,000  Level New York Center
05:15PM 41.4981 -76.4933 110° East 520 598 27,000  Level New York Center
05:16PM 41.4431 -76.2922 110° East 520 598 27,000  Level New York Center
05:17PM 41.3911 -76.1081 111° Southeast 525 604 27,000 -60 Level New York Center
05:18PM 41.3403 -75.9356 111° Southeast 512 589 26,900  Descending New York Center
05:19PM 41.2917 -75.7578 110° East 507 583 27,000 -600 Climbing New York Center
05:20PM 41.2364 -75.5828 113° Southeast 507 583 25,800 -1,740 Descending New York Center
05:21PM 41.1806 -75.4161 114° Southeast 501 577 23,600 -1,440 Descending New York Center
05:22PM 41.1319 -75.2722 114° Southeast 461 531 23,000 -360 Descending New York Center
05:23PM 41.0869 -75.1453 115° Southeast 426 490 23,000  Level New York Center
05:24PM 41.0439 -75.0106 113° Southeast 399 459 23,000 -60 Level New York Center
05:25PM 41.0022 -74.8897 115° Southeast 399 459 22,900  Descending New York Center
05:26PM 40.9697 -74.7447 106° East 400 460 23,000 -420 Climbing New York Center
05:28PM 40.8869 -74.4764 112° Southeast 397 457 21,800 -1,020 Descending New York Center
05:29PM 40.8450 -74.3481 113° Southeast 380 437 20,000 -1,440 Descending New York Center
05:30PM 40.8264 -74.1989 99° East 373 429 19,000 -720 Descending New York Center
05:30PM 40.8167 -74.1333 101° East 362 417 19,000 -360 Level New York TRACON
05:31PM 40.7667 -74.0333 123° Southeast 346 398 18,500 -1,020 Descending New York TRACON
05:32PM 40.6833 -74.0000 163° South 338 389 17,100 -1,680 Descending New York TRACON
05:33PM 40.5833 -73.9667 166° South 334 384 15,200 -2,040 Descending New York TRACON
05:34PM 40.5000 -73.9333 163° South 314 361 12,900 -2,220 Descending New York TRACON
05:35PM 40.4333 -73.9333 180° South 280 322 10,800 -2,460 Descending New York TRACON
05:36PM 40.3500 -73.9000 163° South 282 325 8,300 -2,460 Descending New York TRACON
05:37PM 40.3319 -73.8531 117° Southeast 262 302 6,900 -2,280 Descending New York Center
05:38PM 40.2842 -73.7667 126° Southeast 273 314 4,700 -1,500 Descending New York Center
05:39PM 40.2444 -73.6886 124° Southeast 275 316 4,000 -300 Descending New York Center
05:40PM 40.2442 -73.6097 90° East 225 259 4,100  Climbing New York Center
05:41PM 40.3092 -73.5936 11° North 196 226 4,000 -60 Descending New York Center
05:42PM 40.3700 -73.5742 14° North 211 243 4,000  Level New York Center
05:42PM 40.4000 -73.5667 11° North 230 265 4,000  Level New York TRACON
05:43PM 40.4500 -73.5167 37° Northeast 237 273 4,000  Level New York TRACON
05:44PM 40.5167 -73.4833 21° North 235 270 4,000  Level New York TRACON
05:45PM 40.5833 -73.4500 21° North 227 261 4,000 -300 Level New York TRACON
05:46PM 40.6333 -73.4667 346° North 221 254 3,500 -540 Descending New York TRACON
05:47PM 40.7000 -73.4833 349° North 218 251 3,000 -480 Descending New York TRACON
05:48PM 40.7500 -73.5167 333° Northwest 222 255 2,600 -480 Descending New York TRACON
05:50PM 40.7667 -73.6000 285° West 215 247 2,000 -300 Descending New York TRACON
05:50PM 40.7667 -73.6667 270° West 211 243 2,100 -240 Climbing New York TRACON
05:52PM 40.7167 -73.7000 207° Southwest 158 182 1,600 -660 Descending New York TRACON
05:53PM 40.6833 -73.7333 217° Southwest 148 170 800 -840 Descending New York TRACON